createdAt,value
2022-08-07T00:03:10.678Z,16.80
2022-08-07T00:08:24.412Z,16.80
2022-08-07T00:13:50.959Z,16.80
2022-08-07T00:49:08.728Z,16.70
2022-08-07T00:54:25.252Z,16.60
2022-08-07T00:59:59.176Z,16.60
2022-08-07T01:06:01.605Z,16.60
2022-08-07T01:17:50.868Z,16.50
2022-08-07T01:42:01.486Z,16.50
2022-08-07T01:48:33.852Z,16.50
2022-08-07T01:54:32.794Z,16.50
2022-08-07T02:06:31.275Z,16.40
2022-08-07T02:18:52.518Z,16.40
2022-08-07T02:31:46.661Z,16.30
2022-08-07T03:32:58.301Z,15.30
2022-08-07T05:33:05.437Z,15.00
2022-08-07T05:38:09.779Z,15.00
2022-08-07T05:43:12.777Z,14.90
2022-08-07T05:48:16.890Z,15.00
2022-08-07T05:54:08.580Z,15.00
2022-08-07T05:58:41.936Z,15.10
2022-08-07T06:03:58.975Z,15.10
2022-08-07T06:09:04.598Z,15.10
2022-08-07T06:14:11.624Z,15.20
2022-08-07T06:19:48.014Z,15.30
2022-08-07T06:24:53.189Z,15.40
2022-08-07T06:30:04.236Z,15.40
2022-08-07T06:35:10.482Z,15.50
2022-08-07T06:40:21.335Z,15.60
2022-08-07T06:45:25.060Z,15.60
2022-08-07T06:50:28.056Z,15.70
2022-08-07T06:55:47.860Z,15.80
2022-08-07T07:00:59.188Z,15.90
2022-08-07T07:06:03.653Z,16.10
2022-08-07T07:11:13.851Z,16.10
2022-08-07T07:16:45.396Z,16.30
2022-08-07T07:22:05.028Z,16.40
2022-08-07T07:27:16.783Z,16.50
2022-08-07T07:32:20.695Z,16.60
2022-08-07T07:37:47.280Z,16.80
2022-08-07T07:42:54.174Z,16.90
2022-08-07T07:48:00.548Z,17.10
2022-08-07T07:53:03.488Z,17.20
2022-08-07T07:58:06.027Z,17.40
2022-08-07T08:03:16.572Z,17.50
2022-08-07T08:08:34.940Z,17.70
2022-08-07T08:13:53.867Z,17.80
2022-08-07T08:19:00.409Z,18.00
2022-08-07T08:24:45.532Z,18.10
2022-08-07T08:30:14.146Z,18.30
2022-08-07T08:35:24.028Z,18.40
2022-08-07T08:40:36.708Z,18.60
2022-08-07T08:45:59.329Z,18.70
2022-08-07T08:51:49.226Z,18.80
2022-08-07T08:56:53.053Z,19.00
2022-08-07T09:02:36.664Z,19.10
2022-08-07T09:08:28.278Z,19.20
2022-08-07T09:13:47.031Z,19.20
2022-08-07T09:19:55.213Z,19.30
2022-08-07T09:25:27.547Z,19.40
2022-08-07T09:31:28.002Z,19.60
2022-08-07T09:36:55.701Z,19.80
2022-08-07T09:42:33.290Z,20.00
2022-08-07T09:48:01.245Z,20.20
2022-08-07T09:53:12.617Z,20.40
2022-08-07T09:58:57.593Z,20.60
2022-08-07T10:04:14.880Z,20.80
2022-08-07T10:09:42.646Z,21.00
2022-08-07T10:15:15.304Z,21.30
2022-08-07T10:21:19.883Z,21.60
2022-08-07T10:27:10.169Z,21.80
2022-08-07T10:32:52.863Z,22.10
2022-08-07T10:38:35.298Z,22.30
2022-08-07T10:43:52.373Z,22.60
2022-08-07T10:49:49.147Z,22.80
2022-08-07T10:55:20.921Z,23.00
2022-08-07T11:00:36.511Z,23.50
2022-08-07T11:06:48.258Z,24.00
2022-08-07T11:12:03.119Z,24.60
2022-08-07T11:17:43.465Z,25.20
2022-08-07T11:23:03.888Z,25.70
2022-08-07T11:28:24.653Z,25.80
2022-08-07T11:34:00.249Z,26.20
2022-08-07T11:40:00.329Z,26.50
2022-08-07T11:45:35.972Z,26.30
2022-08-07T11:51:41.993Z,25.90
2022-08-07T11:57:16.907Z,26.00
2022-08-07T12:03:45.631Z,26.30
2022-08-07T12:09:24.903Z,26.50
2022-08-07T12:14:33.172Z,26.10
2022-08-07T12:20:02.703Z,26.40
2022-08-07T12:26:21.984Z,26.70
2022-08-07T12:31:53.327Z,26.80
2022-08-07T12:36:55.570Z,26.70
2022-08-07T12:41:59.579Z,27.10
2022-08-07T12:47:43.925Z,27.20
2022-08-07T12:53:18.150Z,27.40
2022-08-07T12:58:22.397Z,27.90
2022-08-07T13:04:34.269Z,28.20
2022-08-07T13:10:39.866Z,27.90
2022-08-07T13:16:10.698Z,27.70
2022-08-07T13:21:59.058Z,27.80
2022-08-07T13:27:33.351Z,27.90
2022-08-07T13:34:31.568Z,27.90
2022-08-07T13:39:11.174Z,27.90
2022-08-07T13:44:27.599Z,27.70
2022-08-07T13:50:34.182Z,27.90
2022-08-07T13:55:26.442Z,28.00
2022-08-07T14:00:39.623Z,28.00
2022-08-07T14:05:57.596Z,27.90
2022-08-07T14:11:17.325Z,27.90
2022-08-07T14:16:24.359Z,27.70
2022-08-07T14:22:04.266Z,27.70
2022-08-07T14:28:11.357Z,28.00
2022-08-07T14:32:37.570Z,28.20
2022-08-07T14:38:05.463Z,28.20
2022-08-07T14:43:58.778Z,28.30
2022-08-07T14:48:40.437Z,28.30
2022-08-07T14:54:05.869Z,28.10
2022-08-07T15:00:03.186Z,27.70
2022-08-07T15:04:41.189Z,27.70
2022-08-07T15:15:33.544Z,27.60
2022-08-07T15:20:55.265Z,27.30
2022-08-07T15:26:00.199Z,27.30
2022-08-07T15:42:44.932Z,27.00
2022-08-07T15:52:51.592Z,27.00
2022-08-07T15:57:58.509Z,27.10
2022-08-07T16:03:21.612Z,26.80
2022-08-07T16:08:46.506Z,26.60
2022-08-07T16:13:58.386Z,26.30
2022-08-07T16:19:42.483Z,26.10
2022-08-07T16:25:23.194Z,26.10
2022-08-07T16:30:32.594Z,26.00
2022-08-07T16:35:58.387Z,25.90
2022-08-07T16:41:15.821Z,25.90
2022-08-07T16:47:12.457Z,25.90
2022-08-07T16:52:55.638Z,25.90
2022-08-07T16:58:54.394Z,25.70
2022-08-07T17:04:25.135Z,25.60
2022-08-07T17:10:08.199Z,25.40
2022-08-07T17:15:44.663Z,25.20
2022-08-07T17:20:54.819Z,24.90
2022-08-07T17:26:50.133Z,24.70
2022-08-07T17:32:31.180Z,24.60
2022-08-07T17:38:06.571Z,24.50
2022-08-07T17:44:01.468Z,24.30
2022-08-07T17:49:22.954Z,24.10
2022-08-07T17:54:39.837Z,23.80
2022-08-07T18:00:05.626Z,23.60
2022-08-07T18:05:23.486Z,23.40
2022-08-07T18:12:16.451Z,23.20
2022-08-07T18:16:59.796Z,23.10
2022-08-07T18:22:26.684Z,22.90
2022-08-07T18:28:34.184Z,22.70
2022-08-07T18:34:34.730Z,22.60
2022-08-07T18:40:53.866Z,22.40
2022-08-07T18:46:24.437Z,22.30
2022-08-07T18:52:35.179Z,22.10
2022-08-07T18:57:29.256Z,22.10
2022-08-07T19:03:01.422Z,22.00
2022-08-07T19:08:14.985Z,21.80
2022-08-07T19:13:55.517Z,21.70
2022-08-07T19:19:41.885Z,21.70
2022-08-07T19:24:50.297Z,21.50
2022-08-07T19:31:06.451Z,21.40
2022-08-07T19:35:26.811Z,21.30
2022-08-07T19:40:38.068Z,21.10
2022-08-07T19:46:07.626Z,20.90
2022-08-07T19:51:20.334Z,20.80
2022-08-07T19:58:02.039Z,20.70
2022-08-07T20:01:57.299Z,20.50
